Time;durP1;ratioP1;P1;durP2;ratioP2;P2;SDS_P1;SDS_P2;PMS_P1;PMS_P2;Temp;Humidity;BMP_temperature;BMP_pressure;BME280_temperature;BME280_humidity;BME280_pressure;Samples;Min_cycle;Max_cycle;Signal;HPM_P1;HPM_P2
2022/06/29 00:00:23;;;;;;;5.18;1.52;;;16.80;99.90;;;;;;6238095;23;20016;-68
2022/06/29 00:02:49;;;;;;;4.60;1.60;;;16.70;99.90;;;;;;6237105;23;20107;-67
2022/06/29 00:05:21;;;;;;;3.60;1.83;;;16.70;99.90;;;;;;6211415;23;20051;-67
2022/06/29 00:07:47;;;;;;;4.20;1.50;;;16.70;99.90;;;;;;6210805;23;20342;-68
2022/06/29 00:10:14;;;;;;;1.63;1.33;;;16.60;99.90;;;;;;6238967;23;20027;-67
2022/06/29 00:12:41;;;;;;;5.25;1.52;;;16.60;99.90;;;;;;6210798;23;20016;-67
2022/06/29 00:15:07;;;;;;;3.45;1.27;;;16.70;99.90;;;;;;6238692;23;20035;-68
2022/06/29 00:17:34;;;;;;;1.65;1.35;;;16.70;99.90;;;;;;6211031;23;20020;-68
2022/06/29 00:20:01;;;;;;;3.97;1.55;;;16.60;99.90;;;;;;6237646;23;20050;-68
2022/06/29 00:22:27;;;;;;;4.22;1.58;;;16.70;99.90;;;;;;6238480;23;20012;-68
2022/06/29 00:24:53;;;;;;;2.97;1.40;;;16.60;99.90;;;;;;6210912;23;20091;-67
2022/06/29 00:27:19;;;;;;;4.13;1.33;;;16.60;99.90;;;;;;6238725;23;20062;-67
2022/06/29 00:29:45;;;;;;;4.30;1.45;;;16.70;99.90;;;;;;6237170;23;20096;-67
2022/06/29 00:32:11;;;;;;;4.03;1.40;;;16.60;99.90;;;;;;6211346;23;20055;-68
2022/06/29 00:34:37;;;;;;;4.60;1.52;;;16.60;99.90;;;;;;6237729;23;20079;-67
2022/06/29 00:37:03;;;;;;;3.45;1.63;;;16.60;99.90;;;;;;6237993;23;20494;-67
2022/06/29 00:39:29;;;;;;;6.30;1.77;;;16.60;99.90;;;;;;6211136;23;20024;-67
2022/06/29 00:41:55;;;;;;;8.25;2.28;;;16.50;99.90;;;;;;6237938;23;20423;-67
2022/06/29 00:44:21;;;;;;;8.15;1.83;;;16.50;99.90;;;;;;6210896;23;20031;-68
2022/06/29 00:46:51;;;;;;;3.38;1.70;;;16.50;99.90;;;;;;6237182;23;20056;-67
2022/06/29 00:49:19;;;;;;;1.73;1.55;;;16.40;99.90;;;;;;6211855;23;20047;-68
2022/06/29 00:51:47;;;;;;;5.82;1.88;;;16.40;99.90;;;;;;6210447;23;20402;-67
2022/06/29 00:54:17;;;;;;;4.28;2.00;;;16.40;99.90;;;;;;6211234;23;20024;-67
2022/06/29 00:56:43;;;;;;;4.80;1.80;;;16.40;99.90;;;;;;6238149;23;20324;-67
2022/06/29 00:59:12;;;;;;;6.70;1.90;;;16.40;99.90;;;;;;6237707;23;20085;-67
2022/06/29 01:01:38;;;;;;;1.98;1.60;;;16.40;99.90;;;;;;6210661;23;20373;-67
2022/06/29 01:04:04;;;;;;;3.60;1.70;;;16.50;99.90;;;;;;6210405;23;20461;-68
2022/06/29 01:06:30;;;;;;;4.45;2.10;;;16.50;99.90;;;;;;6238042;23;20023;-67
2022/06/29 01:08:56;;;;;;;7.53;2.22;;;16.50;99.90;;;;;;6237533;23;20510;-67
2022/06/29 01:11:21;;;;;;;5.88;2.00;;;16.50;99.90;;;;;;6237531;23;20020;-68
2022/06/29 01:13:48;;;;;;;4.53;1.98;;;16.50;99.90;;;;;;6237952;23;20015;-67
2022/06/29 01:16:14;;;;;;;4.45;1.65;;;16.40;99.90;;;;;;6237308;23;20023;-68
2022/06/29 01:18:39;;;;;;;5.07;2.03;;;16.40;99.90;;;;;;6237593;23;20335;-67
2022/06/29 01:21:08;;;;;;;2.85;1.88;;;16.40;99.90;;;;;;6210279;23;20017;-67
2022/06/29 01:23:34;;;;;;;7.13;1.80;;;16.40;99.90;;;;;;6238156;23;20083;-68
2022/06/29 01:26:08;;;;;;;3.15;2.00;;;16.40;99.90;;;;;;6237200;23;20484;-67
2022/06/29 01:28:34;;;;;;;4.30;1.80;;;16.30;99.90;;;;;;6237170;23;20020;-67
2022/06/29 01:31:00;;;;;;;5.10;2.03;;;16.30;99.90;;;;;;6210585;23;20031;-67
2022/06/29 01:33:27;;;;;;;3.83;2.42;;;16.20;99.90;;;;;;6237114;23;20466;-67
2022/06/29 01:35:53;;;;;;;9.07;2.20;;;16.20;99.90;;;;;;6210983;23;20015;-67
2022/06/29 01:38:19;;;;;;;3.97;2.17;;;16.20;99.90;;;;;;6210315;23;20061;-68
2022/06/29 01:40:45;;;;;;;2.30;1.65;;;16.20;99.90;;;;;;6210307;23;20024;-67
2022/06/29 01:43:11;;;;;;;3.70;2.05;;;16.20;99.90;;;;;;6236990;23;20107;-68
2022/06/29 01:45:37;;;;;;;6.30;2.20;;;16.20;99.90;;;;;;6237170;23;20059;-67
2022/06/29 01:48:04;;;;;;;4.38;2.35;;;16.10;99.90;;;;;;6210361;23;20016;-67
2022/06/29 01:50:30;;;;;;;4.63;2.40;;;16.00;99.90;;;;;;6236571;23;20323;-67
2022/06/29 01:52:55;;;;;;;2.65;1.92;;;16.00;99.90;;;;;;6210952;23;20027;-66
2022/06/29 01:55:21;;;;;;;9.45;2.10;;;16.00;99.90;;;;;;6237519;23;20016;-67
2022/06/29 01:57:47;;;;;;;3.50;2.70;;;16.00;99.90;;;;;;6238620;23;20020;-67
2022/06/29 02:00:13;;;;;;;8.82;2.35;;;16.00;99.90;;;;;;6238844;23;20022;-67
2022/06/29 02:02:39;;;;;;;3.03;1.85;;;16.00;99.90;;;;;;6187316;23;20404;-67
2022/06/29 02:05:06;;;;;;;2.92;2.15;;;16.00;99.90;;;;;;6239242;23;20036;-68
2022/06/29 02:07:31;;;;;;;4.75;2.08;;;15.90;99.90;;;;;;6212504;23;20016;-68
2022/06/29 02:09:57;;;;;;;5.40;2.88;;;15.90;99.90;;;;;;6239828;23;20014;-67
2022/06/29 02:12:23;;;;;;;3.75;2.30;;;15.90;99.90;;;;;;6212236;23;20042;-67
2022/06/29 02:14:49;;;;;;;3.33;2.45;;;15.80;99.90;;;;;;6239436;23;20396;-68
2022/06/29 02:17:14;;;;;;;5.55;2.70;;;15.80;99.90;;;;;;6239228;23;20020;-67
2022/06/29 02:19:40;;;;;;;6.82;2.35;;;15.70;99.90;;;;;;6239343;23;20025;-68
2022/06/29 02:22:06;;;;;;;7.15;2.75;;;15.70;99.90;;;;;;6212050;23;20020;-68
2022/06/29 02:24:32;;;;;;;5.35;2.67;;;15.70;99.90;;;;;;6239264;23;20016;-68
2022/06/29 02:26:57;;;;;;;11.50;2.17;;;15.70;99.90;;;;;;6238908;23;20126;-68
2022/06/29 02:29:23;;;;;;;4.95;2.30;;;15.60;99.90;;;;;;6212493;23;20020;-67
2022/06/29 02:34:46;;;;;;;3.33;2.50;;;15.60;99.90;;;;;;6238211;23;20577;-68
2022/06/29 02:37:16;;;;;;;3.63;2.70;;;15.50;99.90;;;;;;6240595;23;20019;-67
2022/06/29 02:39:42;;;;;;;7.25;2.75;;;15.50;99.90;;;;;;6211742;23;20012;-68
2022/06/29 02:42:10;;;;;;;6.93;2.70;;;15.50;99.90;;;;;;6239838;23;20023;-67
2022/06/29 02:44:36;;;;;;;3.17;2.70;;;15.50;99.90;;;;;;6239007;23;20335;-67
2022/06/29 02:47:03;;;;;;;7.13;2.65;;;15.50;99.90;;;;;;6211737;23;20027;-67
2022/06/29 02:49:29;;;;;;;4.10;2.03;;;15.50;99.90;;;;;;6186764;23;20095;-67
2022/06/29 02:51:55;;;;;;;6.53;2.40;;;15.50;99.90;;;;;;6211258;23;20051;-67
2022/06/29 02:54:21;;;;;;;3.70;2.50;;;15.60;99.90;;;;;;6237188;23;20020;-68
2022/06/29 02:56:46;;;;;;;4.40;2.50;;;15.60;99.90;;;;;;6236430;23;20113;-68
2022/06/29 02:59:12;;;;;;;6.15;2.70;;;15.70;99.90;;;;;;6239845;23;20035;-68
2022/06/29 03:01:38;;;;;;;3.53;3.00;;;15.70;99.90;;;;;;6238239;23;20048;-67
2022/06/29 03:04:04;;;;;;;3.95;2.22;;;15.70;99.90;;;;;;6237529;23;20008;-67
2022/06/29 03:06:30;;;;;;;5.55;2.20;;;15.70;99.90;;;;;;6237235;23;20308;-67
2022/06/29 03:08:55;;;;;;;3.10;2.35;;;15.70;99.90;;;;;;6238916;22;20027;-67
2022/06/29 03:11:21;;;;;;;6.10;2.55;;;15.70;99.90;;;;;;6237559;23;20024;-67
2022/06/29 03:13:47;;;;;;;3.22;2.58;;;15.70;99.90;;;;;;6237591;22;20447;-67
2022/06/29 03:16:13;;;;;;;5.38;3.38;;;15.70;99.90;;;;;;6237722;23;20016;-67
2022/06/29 03:18:39;;;;;;;7.63;3.13;;;15.70;99.90;;;;;;6237936;23;20485;-67
2022/06/29 03:21:05;;;;;;;4.47;2.75;;;15.60;99.90;;;;;;6237223;23;20016;-68
2022/06/29 03:23:32;;;;;;;5.00;2.60;;;15.60;99.90;;;;;;6237239;23;20423;-67
2022/06/29 03:25:58;;;;;;;2.60;2.40;;;15.60;99.90;;;;;;6238555;22;20107;-68
2022/06/29 03:28:24;;;;;;;6.45;2.65;;;15.60;99.90;;;;;;6212464;23;20027;-67
2022/06/29 03:30:50;;;;;;;5.72;2.60;;;15.60;99.90;;;;;;6236217;23;20016;-67
2022/06/29 03:33:16;;;;;;;6.45;2.33;;;15.60;99.90;;;;;;6239260;23;20024;-67
2022/06/29 03:35:41;;;;;;;3.22;3.00;;;15.60;99.90;;;;;;6236136;23;20043;-67
2022/06/29 03:38:07;;;;;;;2.95;2.70;;;15.60;99.90;;;;;;6239320;23;20020;-67
2022/06/29 03:40:33;;;;;;;4.10;2.58;;;15.60;99.90;;;;;;6238283;23;20020;-67
2022/06/29 03:42:58;;;;;;;8.13;2.30;;;15.60;99.90;;;;;;6236959;23;20024;-67
2022/06/29 03:45:24;;;;;;;5.22;2.42;;;15.60;99.90;;;;;;6211983;23;20016;-67
2022/06/29 03:47:50;;;;;;;2.67;2.42;;;15.60;99.90;;;;;;6236198;23;20031;-68
2022/06/29 03:50:16;;;;;;;2.75;2.50;;;15.60;99.90;;;;;;6238846;23;20024;-68
2022/06/29 03:52:42;;;;;;;4.13;3.00;;;15.60;99.90;;;;;;6237210;23;20470;-67
2022/06/29 03:55:08;;;;;;;5.80;2.85;;;15.50;99.90;;;;;;6239112;23;20016;-67
2022/06/29 03:57:34;;;;;;;7.03;3.35;;;15.50;99.90;;;;;;6237693;23;20470;-68
2022/06/29 04:00:00;;;;;;;2.53;2.33;;;15.60;99.90;;;;;;6186701;23;20023;-68
2022/06/29 04:02:25;;;;;;;4.07;2.80;;;15.60;99.90;;;;;;6212037;23;20043;-67
2022/06/29 04:04:52;;;;;;;4.47;2.88;;;15.60;99.90;;;;;;6237590;23;20407;-67
2022/06/29 04:07:18;;;;;;;2.92;2.55;;;15.60;99.90;;;;;;6239006;23;20012;-67
2022/06/29 04:09:44;;;;;;;2.83;2.63;;;15.60;99.90;;;;;;6210394;23;20563;-67
2022/06/29 04:12:10;;;;;;;2.90;2.70;;;15.70;99.90;;;;;;6211942;23;20062;-68
2022/06/29 04:14:36;;;;;;;3.13;2.88;;;15.80;99.90;;;;;;6237694;23;20111;-67
2022/06/29 04:17:01;;;;;;;8.48;2.90;;;15.80;99.90;;;;;;6238626;23;20406;-67
2022/06/29 04:19:28;;;;;;;2.92;2.53;;;15.80;99.90;;;;;;6237341;23;20020;-68
2022/06/29 04:21:54;;;;;;;5.30;3.58;;;15.80;99.90;;;;;;6211401;23;20020;-67
2022/06/29 04:24:21;;;;;;;4.78;3.05;;;15.90;99.90;;;;;;6211486;23;20027;-68
2022/06/29 04:26:47;;;;;;;8.90;3.13;;;15.90;99.90;;;;;;6237010;23;20013;-67
2022/06/29 04:29:13;;;;;;;5.10;2.83;;;16.00;99.90;;;;;;6238990;23;20016;-68
2022/06/29 04:31:39;;;;;;;3.72;3.08;;;16.00;99.90;;;;;;6210183;23;20024;-68
2022/06/29 04:34:05;;;;;;;3.30;2.83;;;16.00;99.90;;;;;;6238920;23;20031;-67
2022/06/29 04:36:31;;;;;;;4.78;3.13;;;16.10;99.90;;;;;;6185728;23;20024;-67
2022/06/29 04:38:57;;;;;;;4.18;3.25;;;16.00;99.90;;;;;;6211174;23;20458;-67
2022/06/29 04:41:23;;;;;;;3.05;2.83;;;16.10;99.90;;;;;;6238241;23;20066;-67
2022/06/29 04:43:49;;;;;;;2.83;2.40;;;16.00;99.90;;;;;;6237201;23;20405;-67
2022/06/29 04:46:22;;;;;;;3.63;3.20;;;16.00;99.90;;;;;;6186501;23;20012;-67
2022/06/29 04:48:58;;;;;;;8.57;2.70;;;16.00;99.90;;;;;;6237064;23;20130;-67
2022/06/29 04:51:25;;;;;;;4.47;2.70;;;16.00;99.90;;;;;;6210985;23;20465;-67
2022/06/29 04:53:55;;;;;;;5.68;2.72;;;16.10;99.90;;;;;;6237195;23;20143;-67
2022/06/29 04:56:23;;;;;;;4.55;2.90;;;16.10;99.90;;;;;;6237831;23;20059;-67
2022/06/29 04:58:51;;;;;;;4.85;2.53;;;16.20;99.90;;;;;;6237293;23;20084;-67
2022/06/29 05:01:18;;;;;;;5.03;2.40;;;16.20;99.90;;;;;;6237251;23;20098;-67
2022/06/29 05:03:44;;;;;;;2.92;2.50;;;16.30;99.90;;;;;;6238542;23;20043;-67
2022/06/29 05:06:10;;;;;;;9.20;3.08;;;16.40;99.90;;;;;;6237598;23;20339;-67
2022/06/29 05:08:35;;;;;;;5.22;2.88;;;16.50;99.90;;;;;;6236582;23;20362;-67
2022/06/29 05:11:01;;;;;;;3.95;2.80;;;16.90;99.90;;;;;;6209858;23;20056;-67
2022/06/29 05:13:27;;;;;;;3.65;2.50;;;17.30;99.90;;;;;;6210720;23;20115;-67
2022/06/29 05:15:52;;;;;;;3.20;2.38;;;17.60;99.90;;;;;;6237018;23;20062;-67
2022/06/29 05:18:18;;;;;;;5.90;2.95;;;17.70;99.90;;;;;;6185682;23;20096;-68
2022/06/29 05:20:58;;;;;;;3.33;2.63;;;17.70;99.90;;;;;;6210696;23;20386;-67
2022/06/29 05:23:25;;;;;;;5.18;2.40;;;17.80;99.90;;;;;;6210157;23;20027;-68
2022/06/29 05:25:52;;;;;;;7.80;2.70;;;17.90;99.90;;;;;;6237740;23;20073;-67
2022/06/29 05:28:17;;;;;;;6.07;3.15;;;17.90;99.90;;;;;;6235614;23;20024;-67
2022/06/29 05:30:43;;;;;;;3.10;2.70;;;17.80;99.90;;;;;;6210195;23;20443;-67
2022/06/29 05:33:09;;;;;;;2.72;2.53;;;17.70;99.90;;;;;;6237552;23;20024;-67
2022/06/29 05:35:35;;;;;;;2.65;2.38;;;17.70;99.90;;;;;;6236955;23;20477;-67
2022/06/29 05:38:04;;;;;;;5.15;2.70;;;17.70;99.90;;;;;;6210626;23;20059;-67
2022/06/29 05:40:32;;;;;;;3.08;2.50;;;17.70;99.90;;;;;;6237294;23;20024;-67
2022/06/29 05:47:36;;;;;;;5.40;2.50;;;17.60;99.90;;;;;;6243681;22;20046;-67
2022/06/29 05:50:03;;;;;;;3.88;2.80;;;17.60;99.90;;;;;;6271742;22;20810;-68
2022/06/29 05:52:28;;;;;;;5.75;2.65;;;17.60;99.90;;;;;;6268815;22;20023;-67
2022/06/29 05:54:54;;;;;;;5.35;2.83;;;17.60;99.90;;;;;;6268765;22;20016;-67
2022/06/29 05:57:20;;;;;;;4.07;2.97;;;17.70;99.90;;;;;;6268246;22;20027;-67
2022/06/29 05:59:47;;;;;;;3.55;3.08;;;17.80;99.90;;;;;;6240916;22;20019;-67
2022/06/29 06:02:13;;;;;;;5.53;2.75;;;17.90;99.90;;;;;;6241581;22;20442;-67
2022/06/29 06:04:39;;;;;;;3.42;2.50;;;18.20;99.90;;;;;;6240743;22;20024;-67
2022/06/29 06:07:05;;;;;;;3.95;2.72;;;18.40;99.90;;;;;;6267060;22;20074;-67
2022/06/29 06:09:32;;;;;;;4.25;2.50;;;18.50;99.90;;;;;;6266977;22;20016;-67
2022/06/29 06:11:58;;;;;;;3.20;2.67;;;18.50;99.90;;;;;;6268584;22;20506;-67
2022/06/29 06:14:24;;;;;;;3.38;2.40;;;18.70;99.90;;;;;;6267127;22;20020;-68
2022/06/29 06:20:43;;;;;;;2.45;2.22;;;18.70;99.90;;;;;;6272256;22;20181;-67
2022/06/29 06:23:09;;;;;;;3.03;2.70;;;18.80;99.90;;;;;;6233381;22;20024;-67
2022/06/29 06:25:35;;;;;;;2.55;2.10;;;18.80;99.90;;;;;;6235745;22;20051;-67
2022/06/29 06:28:01;;;;;;;5.55;2.83;;;18.80;99.90;;;;;;6210587;23;20451;-67
2022/06/29 06:30:27;;;;;;;3.60;2.05;;;18.90;99.90;;;;;;6185226;23;20059;-67
2022/06/29 06:32:53;;;;;;;4.22;2.30;;;19.00;99.90;;;;;;6236684;23;20024;-67
2022/06/29 06:35:19;;;;;;;5.35;2.50;;;19.00;99.90;;;;;;6211844;23;20012;-67
2022/06/29 06:37:46;;;;;;;3.67;2.17;;;19.10;99.90;;;;;;6236875;23;20020;-67
2022/06/29 06:42:57;;;;;;;9.77;3.55;;;19.20;99.90;;;;;;6237410;23;20024;-67
2022/06/29 06:45:23;;;;;;;2.72;2.05;;;19.30;98.60;;;;;;6239709;23;20020;-68
2022/06/29 06:47:49;;;;;;;4.22;1.98;;;19.40;99.90;;;;;;6213190;23;20082;-67
2022/06/29 06:50:15;;;;;;;4.55;2.00;;;19.50;98.80;;;;;;6238546;23;20378;-67
2022/06/29 06:52:41;;;;;;;2.33;1.85;;;19.50;99.30;;;;;;6213466;23;20042;-68
2022/06/29 06:55:07;;;;;;;17.30;2.40;;;19.60;99.40;;;;;;6210585;23;20020;-67
2022/06/29 06:57:33;;;;;;;2.90;1.92;;;19.80;99.90;;;;;;6213470;23;20023;-67
2022/06/29 06:59:59;;;;;;;2.65;2.10;;;19.90;97.60;;;;;;6210161;23;20020;-67
2022/06/29 07:02:24;;;;;;;6.05;2.00;;;20.00;96.80;;;;;;6213185;23;20070;-67
2022/06/29 07:04:51;;;;;;;5.25;1.75;;;20.20;92.10;;;;;;6212730;23;20066;-67
2022/06/29 07:07:17;;;;;;;2.42;1.73;;;20.40;93.50;;;;;;6239002;23;20506;-67
2022/06/29 07:09:43;;;;;;;3.67;1.98;;;20.50;91.80;;;;;;6212713;23;20051;-67
2022/06/29 07:12:09;;;;;;;7.15;2.15;;;20.60;92.00;;;;;;6237845;23;20403;-67
2022/06/29 07:14:34;;;;;;;2.22;1.70;;;20.80;92.80;;;;;;6238708;23;20078;-68
2022/06/29 07:17:00;;;;;;;2.70;2.10;;;21.00;88.70;;;;;;6237655;23;20451;-68
2022/06/29 07:19:26;;;;;;;1.70;1.60;;;21.20;86.10;;;;;;6240368;23;20016;-68
2022/06/29 07:21:52;;;;;;;1.77;1.67;;;21.50;88.10;;;;;;6237419;23;20019;-67
2022/06/29 07:24:23;;;;;;;6.70;2.17;;;21.60;88.80;;;;;;6164337;23;20034;-67
2022/06/29 07:26:49;;;;;;;4.40;1.85;;;21.80;90.20;;;;;;6212809;23;20020;-67
2022/06/29 07:29:15;;;;;;;4.78;1.60;;;22.00;86.70;;;;;;6210895;23;20016;-67
2022/06/29 07:31:40;;;;;;;3.90;1.75;;;22.30;80.30;;;;;;6209552;23;20024;-68
2022/06/29 07:34:06;;;;;;;2.00;1.17;;;22.60;70.10;;;;;;6234988;23;20423;-67
2022/06/29 07:36:32;;;;;;;5.03;1.95;;;22.80;64.80;;;;;;6210266;23;20091;-67
2022/06/29 07:38:57;;;;;;;3.35;1.80;;;22.90;54.00;;;;;;6234548;23;20484;-67
2022/06/29 07:41:23;;;;;;;6.57;2.00;;;23.10;60.70;;;;;;6210188;23;20313;-67
2022/06/29 07:43:49;;;;;;;2.35;1.60;;;23.30;56.40;;;;;;6208647;23;20073;-68
2022/06/29 07:46:16;;;;;;;2.35;1.73;;;23.50;49.60;;;;;;6182834;23;20093;-68
2022/06/29 07:48:42;;;;;;;4.15;1.58;;;23.60;49.50;;;;;;6237136;23;20104;-67
2022/06/29 07:51:08;;;;;;;6.90;1.75;;;23.90;46.60;;;;;;6234657;23;20087;-68
2022/06/29 07:53:33;;;;;;;5.18;1.90;;;23.90;55.70;;;;;;6235921;23;20443;-67
2022/06/29 07:55:59;;;;;;;6.63;1.58;;;24.10;58.40;;;;;;6207430;23;20103;-68
2022/06/29 07:58:25;;;;;;;2.40;1.35;;;24.30;62.40;;;;;;6210049;23;20106;-68
2022/06/29 08:00:52;;;;;;;3.47;1.50;;;24.30;43.20;;;;;;6211491;23;20046;-68
2022/06/29 08:03:18;;;;;;;6.13;1.55;;;24.60;40.20;;;;;;6238236;23;20355;-68
2022/06/29 08:05:45;;;;;;;7.60;1.70;;;24.80;50.20;;;;;;6212364;23;20024;-65
2022/06/29 08:08:11;;;;;;;4.93;1.50;;;24.90;25.90;;;;;;6236941;23;20142;-65
2022/06/29 08:10:37;;;;;;;3.67;1.67;;;24.90;32.30;;;;;;6241446;23;20050;-66
2022/06/29 08:13:02;;;;;;;9.25;2.65;;;25.00;54.10;;;;;;6211809;23;20381;-65
2022/06/29 08:15:29;;;;;;;2.83;1.67;;;25.00;26.80;;;;;;6212442;23;20020;-65
2022/06/29 08:17:55;;;;;;;5.88;1.35;;;25.00;36.00;;;;;;6237831;23;20782;-65
2022/06/29 08:20:21;;;;;;;1.42;1.30;;;25.00;32.60;;;;;;6237190;23;20024;-66
2022/06/29 08:22:48;;;;;;;1.98;1.52;;;25.10;27.50;;;;;;6238027;23;20023;-65
2022/06/29 08:25:14;;;;;;;3.03;1.30;;;25.10;27.60;;;;;;6237535;23;20027;-65
2022/06/29 08:27:41;;;;;;;4.03;1.23;;;25.10;18.90;;;;;;6235437;23;20138;-66
2022/06/29 08:30:09;;;;;;;2.13;1.48;;;25.20;16.30;;;;;;6232519;23;20016;-66
2022/06/29 08:32:35;;;;;;;4.93;1.70;;;25.30;19.70;;;;;;6262259;22;20035;-65
2022/06/29 08:35:01;;;;;;;8.10;1.20;;;25.30;27.30;;;;;;6235904;22;20439;-66
2022/06/29 08:37:30;;;;;;;3.33;1.27;;;25.50;38.10;;;;;;6237328;23;20012;-65
2022/06/29 08:39:56;;;;;;;1.77;1.40;;;25.70;19.70;;;;;;6238596;23;20012;-66
2022/06/29 08:42:23;;;;;;;3.88;1.95;;;25.90;30.80;;;;;;6237239;23;20039;-66
2022/06/29 08:44:50;;;;;;;2.25;1.05;;;26.10;28.30;;;;;;6238595;23;20016;-65
2022/06/29 08:47:16;;;;;;;1.55;1.00;;;26.00;24.60;;;;;;6235362;23;20024;-66
2022/06/29 08:49:44;;;;;;;3.85;1.00;;;26.00;13.60;;;;;;6211550;23;20027;-66
2022/06/29 08:52:11;;;;;;;2.33;1.30;;;26.00;19.50;;;;;;6236682;23;20016;-66
2022/06/29 08:54:43;;;;;;;3.75;1.20;;;26.00;8.70;;;;;;6236388;23;20448;-66
2022/06/29 08:57:09;;;;;;;4.30;1.00;;;26.00;9.50;;;;;;6237799;23;20026;-66
2022/06/29 08:59:35;;;;;;;1.13;1.08;;;25.90;14.70;;;;;;6236476;23;20601;-66
2022/06/29 09:02:02;;;;;;;7.32;1.35;;;26.00;9.80;;;;;;6236275;23;20539;-66
2022/06/29 09:04:28;;;;;;;2.15;1.30;;;26.10;9.10;;;;;;6235154;22;20024;-67
2022/06/29 09:06:56;;;;;;;1.55;1.20;;;26.20;8.10;;;;;;6261452;22;20028;-66
2022/06/29 09:09:25;;;;;;;8.27;1.30;;;26.30;1.80;;;;;;6234533;22;20073;-66
2022/06/29 09:11:52;;;;;;;6.80;1.42;;;26.20;4.80;;;;;;6236872;23;20020;-66
2022/06/29 09:14:23;;;;;;;7.70;1.35;;;26.40;8.10;;;;;;6237383;22;20016;-66
2022/06/29 09:16:49;;;;;;;3.97;0.90;;;26.50;2.80;;;;;;6236540;23;20047;-66
2022/06/29 09:19:15;;;;;;;2.83;1.13;;;26.40;2.80;;;;;;6262093;22;20024;-65
2022/06/29 09:21:49;;;;;;;1.13;0.88;;;26.50;9.00;;;;;;6236784;23;20008;-66
2022/06/29 09:24:23;;;;;;;4.03;0.80;;;26.60;4.70;;;;;;6238401;23;20024;-66
2022/06/29 09:26:57;;;;;;;5.60;1.10;;;26.50;1.00;;;;;;6235534;23;20531;-67
2022/06/29 09:29:32;;;;;;;1.08;0.98;;;26.40;1.00;;;;;;6235619;22;20034;-66
2022/06/29 09:32:04;;;;;;;0.77;0.77;;;26.50;2.30;;;;;;6232340;23;20055;-66
2022/06/29 09:34:30;;;;;;;0.80;0.80;;;26.70;1.00;;;;;;6234565;23;20051;-66
2022/06/29 09:36:58;;;;;;;1.17;1.00;;;26.80;1.00;;;;;;6237166;23;20066;-66
2022/06/29 09:39:33;;;;;;;1.98;1.25;;;26.80;1.00;;;;;;6234885;23;20069;-66
2022/06/29 09:42:00;;;;;;;4.80;0.90;;;26.70;1.00;;;;;;6237267;23;20032;-66
2022/06/29 09:44:26;;;;;;;1.05;0.90;;;26.60;1.00;;;;;;6232958;23;20027;-67
2022/06/29 09:46:55;;;;;;;7.47;0.90;;;26.40;3.20;;;;;;6209991;23;20024;-66
2022/06/29 09:49:25;;;;;;;1.85;1.10;;;26.20;1.00;;;;;;6234138;23;20016;-65
2022/06/29 09:51:55;;;;;;;2.33;1.00;;;26.10;1.80;;;;;;6234062;23;20046;-66
2022/06/29 09:54:28;;;;;;;3.25;1.10;;;26.20;14.40;;;;;;6235617;23;20020;-66
2022/06/29 09:56:56;;;;;;;7.32;0.93;;;26.30;2.80;;;;;;6236045;23;20106;-66
2022/06/29 10:02:34;;;;;;;6.35;1.25;;;26.60;1.90;;;;;;6238172;23;20024;-66
2022/06/29 10:05:04;;;;;;;3.70;0.88;;;26.80;2.50;;;;;;6236864;23;20016;-66
2022/06/29 10:07:31;;;;;;;4.20;1.33;;;26.80;1.00;;;;;;6236126;23;20020;-66
2022/06/29 10:10:01;;;;;;;1.88;0.95;;;26.90;1.00;;;;;;6237529;23;20429;-66
2022/06/29 10:15:56;;;;;;;1.25;0.90;;;27.00;1.00;;;;;;6238790;23;20028;-66
2022/06/29 10:18:36;;;;;;;2.90;1.13;;;27.20;1.00;;;;;;6237178;23;20038;-66
2022/06/29 10:21:10;;;;;;;0.90;0.90;;;27.30;1.00;;;;;;6239364;23;20024;-66
2022/06/29 10:23:44;;;;;;;2.97;1.00;;;27.30;1.00;;;;;;6239206;23;20119;-65
2022/06/29 10:26:27;;;;;;;9.75;1.08;;;27.20;1.00;;;;;;6237195;23;20024;-67
2022/06/29 10:28:54;;;;;;;6.75;1.10;;;27.20;1.00;;;;;;6239486;23;20521;-66
2022/06/29 10:31:53;;;;;;;2.13;1.15;;;27.20;1.60;;;;;;6235793;23;20074;-66
2022/06/29 10:34:31;;;;;;;3.05;1.20;;;27.30;1.00;;;;;;6236806;23;20408;-66
2022/06/29 10:37:04;;;;;;;2.58;1.00;;;27.30;1.00;;;;;;6235639;23;20023;-66
2022/06/29 10:39:45;;;;;;;1.98;1.08;;;27.40;1.00;;;;;;6235165;23;20086;-67
2022/06/29 10:45:16;;;;;;;4.22;1.08;;;27.40;1.00;;;;;;6239633;23;20016;-66
2022/06/29 10:47:55;;;;;;;1.95;0.80;;;27.20;1.00;;;;;;6236432;23;20020;-67
2022/06/29 10:50:23;;;;;;;5.72;1.00;;;27.10;1.00;;;;;;6235155;23;20023;-66
2022/06/29 10:52:50;;;;;;;1.20;1.10;;;27.10;1.00;;;;;;6236193;23;20023;-66
2022/06/29 10:55:17;;;;;;;1.13;0.80;;;27.10;1.00;;;;;;6187283;23;20016;-67
2022/06/29 10:57:45;;;;;;;1.63;0.88;;;27.20;1.00;;;;;;6235518;23;20050;-66
2022/06/29 11:00:27;;;;;;;5.47;0.80;;;27.20;1.00;;;;;;6237285;23;20078;-66
2022/06/29 11:02:54;;;;;;;2.35;0.70;;;27.30;1.00;;;;;;6239029;22;20027;-67
2022/06/29 11:05:22;;;;;;;2.60;0.90;;;27.50;1.00;;;;;;6237422;23;20099;-67
2022/06/29 11:13:23;;;;;;;3.17;0.90;;;27.40;1.00;;;;;;6237642;23;20143;-66
2022/06/29 11:15:54;;;;;;;1.00;1.00;;;27.20;1.00;;;;;;6237817;23;20023;-66
2022/06/29 11:18:26;;;;;;;0.88;0.88;;;27.20;1.00;;;;;;6234782;23;20070;-66
2022/06/29 11:20:53;;;;;;;1.05;0.95;;;27.20;1.00;;;;;;6239542;22;20022;-67
2022/06/29 11:23:21;;;;;;;1.77;1.13;;;27.10;1.00;;;;;;6236680;23;20070;-66
2022/06/29 11:25:54;;;;;;;3.05;0.95;;;27.10;1.00;;;;;;6186765;23;20439;-66
2022/06/29 11:28:27;;;;;;;0.95;0.80;;;27.10;1.00;;;;;;6239588;23;20012;-66
2022/06/29 11:31:11;;;;;;;1.00;1.00;;;27.10;1.00;;;;;;6185797;23;20077;-67
2022/06/29 11:33:41;;;;;;;1.95;0.98;;;27.00;1.00;;;;;;6237951;23;20391;-67
2022/06/29 11:36:10;;;;;;;4.80;1.40;;;26.80;1.00;;;;;;6209455;23;20458;-67
2022/06/29 11:38:40;;;;;;;;;;;26.70;1.00;;;;;;6239807;23;20012;-67
2022/06/29 11:41:15;;;;;;;3.45;1.00;;;26.80;1.00;;;;;;6238207;23;19990;-67
2022/06/29 11:43:41;;;;;;;1.40;0.95;;;26.80;1.00;;;;;;6237828;23;20016;-67
2022/06/29 11:46:21;;;;;;;3.55;1.10;;;26.70;1.00;;;;;;6211343;23;20039;-66
2022/06/29 11:52:03;;;;;;;2.15;0.98;;;26.70;1.00;;;;;;6210734;23;20024;-68
2022/06/29 11:54:37;;;;;;;1.40;0.95;;;26.80;1.00;;;;;;6238362;23;20047;-66
2022/06/29 11:57:05;;;;;;;5.10;1.10;;;27.00;1.00;;;;;;6236101;23;20082;-68
2022/06/29 11:59:35;;;;;;;4.35;1.13;;;27.10;1.00;;;;;;6238509;23;20012;-67
2022/06/29 12:02:01;;;;;;;2.38;0.90;;;27.10;1.00;;;;;;6237344;23;20343;-67
2022/06/29 12:04:33;;;;;;;2.47;1.08;;;27.20;1.00;;;;;;6210208;23;20036;-68
2022/06/29 12:07:06;;;;;;;3.70;1.17;;;27.30;1.00;;;;;;6211653;23;20016;-68
2022/06/29 12:09:33;;;;;;;3.28;0.77;;;27.20;1.00;;;;;;6237327;23;20020;-67
2022/06/29 12:11:59;;;;;;;3.33;1.05;;;27.10;1.00;;;;;;6212052;23;20020;-67
2022/06/29 12:14:25;;;;;;;3.05;1.02;;;27.10;1.00;;;;;;6237111;23;20020;-67
2022/06/29 12:16:51;;;;;;;0.77;0.77;;;27.00;1.00;;;;;;6239382;23;20041;-67
2022/06/29 12:19:16;;;;;;;3.63;1.33;;;27.00;1.00;;;;;;6209694;23;20063;-67
2022/06/29 12:21:43;;;;;;;0.90;0.90;;;27.00;1.00;;;;;;6210964;23;20105;-67
2022/06/29 12:24:09;;;;;;;3.15;1.10;;;26.90;1.00;;;;;;6238465;23;20016;-67
2022/06/29 12:26:35;;;;;;;1.55;0.80;;;26.80;1.00;;;;;;6238179;23;20335;-67
2022/06/29 12:29:01;;;;;;;3.08;0.98;;;26.80;1.00;;;;;;6212421;23;20133;-67
2022/06/29 12:31:27;;;;;;;1.95;1.00;;;26.80;1.00;;;;;;6236613;23;20423;-67
2022/06/29 12:33:52;;;;;;;5.03;1.00;;;26.90;1.00;;;;;;6239157;23;20019;-67
2022/06/29 12:36:18;;;;;;;4.22;0.80;;;27.00;1.00;;;;;;6184655;23;20067;-67
2022/06/29 12:38:44;;;;;;;1.10;1.00;;;27.30;1.00;;;;;;6238075;23;20087;-67
2022/06/29 12:41:09;;;;;;;3.10;1.02;;;27.40;1.00;;;;;;6209248;23;20518;-67
2022/06/29 12:43:35;;;;;;;3.63;1.05;;;27.50;1.00;;;;;;6238623;23;20070;-67
2022/06/29 12:46:01;;;;;;;7.80;0.90;;;27.70;1.00;;;;;;6211609;23;20391;-67
2022/06/29 12:48:27;;;;;;;2.47;1.10;;;27.60;1.00;;;;;;6210348;23;20019;-67
2022/06/29 12:50:53;;;;;;;1.30;0.95;;;27.60;1.00;;;;;;6187143;23;20106;-67
2022/06/29 12:53:19;;;;;;;4.90;1.20;;;27.60;1.00;;;;;;6185516;23;20019;-68
2022/06/29 12:55:45;;;;;;;2.17;1.38;;;27.60;1.00;;;;;;6186608;23;20031;-67
2022/06/29 12:58:11;;;;;;;5.25;1.20;;;27.60;1.00;;;;;;6237168;23;20019;-67
2022/06/29 13:00:37;;;;;;;3.08;1.15;;;27.60;1.00;;;;;;6211731;23;20030;-67
2022/06/29 13:03:02;;;;;;;1.60;1.23;;;27.40;1.00;;;;;;6211608;23;20018;-66
2022/06/29 13:05:29;;;;;;;2.10;1.55;;;27.20;1.00;;;;;;6211230;23;20401;-67
2022/06/29 13:07:54;;;;;;;3.55;2.20;;;27.00;1.00;;;;;;6238950;23;20055;-68
2022/06/29 13:10:20;;;;;;;3.05;1.92;;;26.80;1.00;;;;;;6160404;23;20016;-67
2022/06/29 13:12:46;;;;;;;7.53;2.08;;;26.80;1.00;;;;;;6211472;23;20443;-68
2022/06/29 13:15:12;;;;;;;2.05;1.77;;;26.70;1.00;;;;;;6210722;23;20012;-67
2022/06/29 13:17:37;;;;;;;4.10;1.95;;;26.60;1.00;;;;;;6211727;23;20028;-67
2022/06/29 13:20:08;;;;;;;5.05;2.17;;;26.50;1.00;;;;;;6161283;23;20020;-67
2022/06/29 13:22:34;;;;;;;7.75;2.08;;;26.30;1.80;;;;;;6147352;23;20020;-66